Terminal Aerodrome Forecast
Issued by NWS Mobile, AL

Home | Current Version | Previous Version | Text Only | Print | Product List | Glossary On
Versions: 1 2 3 4 5 6 7 8 9 10 11 12 13 14 15 16 17 18 19 20 21 22 23 24 25 26 27 28 29 30 31 32 33 34 35 36 37 38 39 40
000
FTUS44 KMOB 180530
TAFPNS
TAF
KPNS 180530Z 1806/1906 34004KT P6SM FEW008 BKN014 OVC029
     FM180900 35004KT 4SM BR OVC004
      TEMPO 1810/1814 1SM BR OVC002
     FM181600 16009KT P6SM OVC010
      TEMPO 1816/1818 -SHRA OVC015
     FM181900 18010KT P6SM OVC015 PROB30 1819/1824 P6SM -TSRA
      BKN015CB OVC025
     FM190000 18011KT P6SM VCTS OVC015CB PROB30 1900/1906 P6SM -TSRA
      BKN012CB OVC015=

USA.gov is the U.S. government's official web portal to all federal, state and local government web resources and services.